Time;durP1;ratioP1;P1;durP2;ratioP2;P2;SDS_P1;SDS_P2;PMS_P1;PMS_P2;Temp;Humidity;BMP_temperature;BMP_pressure;BME280_temperature;BME280_humidity;BME280_pressure;Samples;Min_cycle;Max_cycle;Signal;HPM_P1;HPM_P2
2022/11/14 00:01:40;;;;;;;;;;;;;;;;;;7367809;19;1388;-60
2022/11/14 00:04:27;;;;;;;;;;;;;;;;;;7372191;19;1942;-60
2022/11/14 00:07:14;;;;;;;;;;;;;;;;;;7368017;19;1906;-60
2022/11/14 00:10:01;;;;;;;;;;;;;;;;;;7368540;19;832;-60
2022/11/14 00:12:47;;;;;;;;;;;;;;;;;;7365649;19;1337;-60
2022/11/14 00:15:34;;;;;;;;;;;;;;;;;;7369168;19;663;-60
2022/11/14 00:18:21;;;;;;;;;;;;;;;;;;7368662;19;724;-60
2022/11/14 00:21:08;;;;;;;;;;;;;;;;;;7367473;19;1351;-60
2022/11/14 00:23:55;;;;;;;;;;;;;;;;;;7367939;19;720;-60
2022/11/14 00:26:42;;;;;;;;;;;;;;;;;;7368816;19;763;-61
2022/11/14 00:29:28;;;;;;;;;;;;;;;;;;7365117;19;1846;-60
2022/11/14 00:32:15;;;;;;;;;;;;;;;;;;7371004;19;2005;-58
2022/11/14 00:35:02;;;;;;;;;;;;;;;;;;7369365;19;710;-60
2022/11/14 00:37:49;;;;;;;;;;;;;;;;;;7367176;19;765;-60
2022/11/14 00:40:36;;;;;;;;;;;;;;;;;;7367623;19;726;-60
2022/11/14 00:43:23;;;;;;;;;;;;;;;;;;7369271;19;1586;-60
2022/11/14 00:46:10;;;;;;;;;;;;;;;;;;7367654;19;839;-60
2022/11/14 00:48:56;;;;;;;;;;;;;;;;;;7364867;19;1845;-60
2022/11/14 00:51:43;;;;;;;;;;;;;;;;;;7365526;19;1334;-58
2022/11/14 00:54:30;;;;;;;;;;;;;;;;;;7367115;19;1369;-61
2022/11/14 00:57:17;;;;;;;;;;;;;;;;;;7367041;19;720;-60
2022/11/14 01:00:04;;;;;;;;;;;;;;;;;;7366888;19;707;-60
2022/11/14 01:02:51;;;;;;;;;;;;;;;;;;7365835;19;1338;-60
2022/11/14 01:05:37;;;;;;;;;;;;;;;;;;7369382;19;1781;-58
2022/11/14 01:08:24;;;;;;;;;;;;;;;;;;7365157;19;1837;-60
2022/11/14 01:11:11;;;;;;;;;;;;;;;;;;7365519;19;1307;-62
2022/11/14 01:13:58;;;;;;;;;;;;;;;;;;7366489;19;718;-60
2022/11/14 01:16:45;;;;;;;;;;;;;;;;;;7366816;19;765;-60
2022/11/14 01:19:32;;;;;;;;;;;;;;;;;;7365682;19;713;-60
2022/11/14 01:22:18;;;;;;;;;;;;;;;;;;7364093;19;1323;-60
2022/11/14 01:25:05;;;;;;;;;;;;;;;;;;7366515;19;815;-60
2022/11/14 01:27:52;;;;;;;;;;;;;;;;;;7369831;19;1865;-60
2022/11/14 01:30:38;;;;;;;;;;;;;;;;;;7365597;19;1338;-60
2022/11/14 01:33:25;;;;;;;;;;;;;;;;;;7366393;19;791;-58
2022/11/14 01:36:12;;;;;;;;;;;;;;;;;;7365997;19;725;-60
2022/11/14 01:38:59;;;;;;;;;;;;;;;;;;7365101;19;796;-60
2022/11/14 01:41:46;;;;;;;;;;;;;;;;;;7364209;19;1397;-60
2022/11/14 01:44:32;;;;;;;;;;;;;;;;;;7369193;19;1799;-58
2022/11/14 01:47:19;;;;;;;;;;;;;;;;;;7365142;19;755;-61
2022/11/14 01:50:06;;;;;;;;;;;;;;;;;;7365304;19;705;-60
2022/11/14 01:52:53;;;;;;;;;;;;;;;;;;7362496;19;1353;-60
2022/11/14 01:55:40;;;;;;;;;;;;;;;;;;7369036;19;2073;-60
2022/11/14 01:58:26;;;;;;;;;;;;;;;;;;7365020;19;887;-61
2022/11/14 02:01:13;;;;;;;;;;;;;;;;;;7363987;19;1278;-61
2022/11/14 02:04:00;;;;;;;;;;;;;;;;;;7365000;19;716;-59
2022/11/14 02:06:47;;;;;;;;;;;;;;;;;;7367757;19;1815;-61
2022/11/14 02:09:33;;;;;;;;;;;;;;;;;;7361484;19;1846;-60
2022/11/14 02:12:20;;;;;;;;;;;;;;;;;;7362447;19;1346;-60
2022/11/14 02:15:07;;;;;;;;;;;;;;;;;;7369106;19;707;-60
2022/11/14 02:17:54;;;;;;;;;;;;;;;;;;7371383;19;698;-60
2022/11/14 02:20:42;;;;;;;;;;;;;;;;;;7372264;19;1818;-60
2022/11/14 02:23:28;;;;;;;;;;;;;;;;;;7370512;19;698;-60
2022/11/14 02:26:15;;;;;;;;;;;;;;;;;;7375504;19;1594;-60
2022/11/14 02:29:02;;;;;;;;;;;;;;;;;;7368257;19;1845;-60
2022/11/14 02:31:49;;;;;;;;;;;;;;;;;;7369207;19;1333;-59
2022/11/14 02:34:36;;;;;;;;;;;;;;;;;;7370744;19;714;-61
2022/11/14 02:37:22;;;;;;;;;;;;;;;;;;7373423;19;1550;-61
2022/11/14 02:40:09;;;;;;;;;;;;;;;;;;7371011;19;871;-61
2022/11/14 02:42:56;;;;;;;;;;;;;;;;;;7368101;19;1829;-55
2022/11/14 02:45:43;;;;;;;;;;;;;;;;;;7371027;19;714;-61
2022/11/14 02:48:30;;;;;;;;;;;;;;;;;;7368976;19;1836;-60
2022/11/14 02:51:17;;;;;;;;;;;;;;;;;;7369353;19;1274;-58
2022/11/14 02:54:04;;;;;;;;;;;;;;;;;;7374740;19;1560;-61
2022/11/14 02:56:50;;;;;;;;;;;;;;;;;;7370296;19;889;-59
2022/11/14 02:59:37;;;;;;;;;;;;;;;;;;7368599;19;734;-60
2022/11/14 03:02:24;;;;;;;;;;;;;;;;;;7367470;19;1292;-59
2022/11/14 03:05:11;;;;;;;;;;;;;;;;;;7374520;19;728;-60
2022/11/14 03:07:58;;;;;;;;;;;;;;;;;;7369490;19;1823;-59
2022/11/14 03:10:45;;;;;;;;;;;;;;;;;;7368901;19;1269;-60
2022/11/14 03:13:31;;;;;;;;;;;;;;;;;;7370186;19;1816;-61
2022/11/14 03:16:18;;;;;;;;;;;;;;;;;;7369650;19;765;-61
2022/11/14 03:19:05;;;;;;;;;;;;;;;;;;7368859;19;748;-60
2022/11/14 03:21:52;;;;;;;;;;;;;;;;;;7368739;19;1702;-59
2022/11/14 03:24:38;;;;;;;;;;;;;;;;;;7368605;19;704;-60
2022/11/14 03:27:25;;;;;;;;;;;;;;;;;;7367221;19;758;-60
2022/11/14 03:30:12;;;;;;;;;;;;;;;;;;7367008;19;1853;-60
2022/11/14 03:32:59;;;;;;;;;;;;;;;;;;7367112;19;1341;-61
2022/11/14 03:35:46;;;;;;;;;;;;;;;;;;7369272;19;697;-60
2022/11/14 03:38:33;;;;;;;;;;;;;;;;;;7369467;19;699;-61
2022/11/14 03:41:19;;;;;;;;;;;;;;;;;;7367913;19;1396;-61
2022/11/14 03:44:06;;;;;;;;;;;;;;;;;;7369418;19;767;-59
2022/11/14 03:46:53;;;;;;;;;;;;;;;;;;7368310;19;788;-60
2022/11/14 03:49:40;;;;;;;;;;;;;;;;;;7366360;19;1852;-59
2022/11/14 03:52:27;;;;;;;;;;;;;;;;;;7371294;19;1326;-60
2022/11/14 03:55:14;;;;;;;;;;;;;;;;;;7368622;19;708;-60
2022/11/14 03:58:00;;;;;;;;;;;;;;;;;;7368176;19;770;-60
2022/11/14 04:00:47;;;;;;;;;;;;;;;;;;7368304;19;1271;-57
2022/11/14 04:03:34;;;;;;;;;;;;;;;;;;7372304;19;2195;-60
2022/11/14 04:06:21;;;;;;;;;;;;;;;;;;7368433;19;788;-60
2022/11/14 04:09:08;;;;;;;;;;;;;;;;;;7367952;19;1896;-60
2022/11/14 04:11:55;;;;;;;;;;;;;;;;;;7368305;19;1857;-60
2022/11/14 04:14:41;;;;;;;;;;;;;;;;;;7369162;19;694;-60
2022/11/14 04:17:28;;;;;;;;;;;;;;;;;;7368580;19;725;-60
2022/11/14 04:20:15;;;;;;;;;;;;;;;;;;7369707;19;1569;-59
2022/11/14 04:23:02;;;;;;;;;;;;;;;;;;7365279;19;1399;-57
2022/11/14 04:25:49;;;;;;;;;;;;;;;;;;7367053;19;963;-59
2022/11/14 04:28:36;;;;;;;;;;;;;;;;;;7366791;19;1858;-60
2022/11/14 04:31:23;;;;;;;;;;;;;;;;;;7367350;19;1405;-59
2022/11/14 04:34:09;;;;;;;;;;;;;;;;;;7367276;19;760;-59
2022/11/14 04:36:56;;;;;;;;;;;;;;;;;;7368079;19;704;-59
2022/11/14 04:39:43;;;;;;;;;;;;;;;;;;7366828;19;778;-59
2022/11/14 04:42:30;;;;;;;;;;;;;;;;;;7365035;19;1293;-59
2022/11/14 04:45:17;;;;;;;;;;;;;;;;;;7367840;19;708;-59
2022/11/14 04:48:03;;;;;;;;;;;;;;;;;;7366481;19;736;-60
2022/11/14 04:50:50;;;;;;;;;;;;;;;;;;7367248;19;1416;-60
2022/11/14 04:53:37;;;;;;;;;;;;;;;;;;7366989;19;698;-59
2022/11/14 04:56:24;;;;;;;;;;;;;;;;;;7367009;19;768;-59
2022/11/14 04:59:11;;;;;;;;;;;;;;;;;;7366640;19;743;-58
2022/11/14 05:01:58;;;;;;;;;;;;;;;;;;7365582;19;1818;-60
2022/11/14 05:04:47;;;;;;;;;;;;;;;;;;7366832;19;765;-59
2022/11/14 05:07:33;;;;;;;;;;;;;;;;;;7366357;19;814;-60
2022/11/14 05:10:20;;;;;;;;;;;;;;;;;;7364503;19;1842;-57
2022/11/14 05:13:07;;;;;;;;;;;;;;;;;;7366693;19;737;-57
2022/11/14 05:15:54;;;;;;;;;;;;;;;;;;7366569;19;877;-60
2022/11/14 05:18:41;;;;;;;;;;;;;;;;;;7367070;19;1845;-60
2022/11/14 05:21:28;;;;;;;;;;;;;;;;;;7365895;19;1455;-60
2022/11/14 05:24:15;;;;;;;;;;;;;;;;;;7365785;19;771;-60
2022/11/14 05:27:01;;;;;;;;;;;;;;;;;;7366064;19;760;-60
2022/11/14 05:29:48;;;;;;;;;;;;;;;;;;7363168;19;1845;-59
2022/11/14 05:32:35;;;;;;;;;;;;;;;;;;7363931;19;1358;-59
2022/11/14 05:35:22;;;;;;;;;;;;;;;;;;7366366;19;848;-59
2022/11/14 05:38:09;;;;;;;;;;;;;;;;;;7365131;19;776;-59
2022/11/14 05:40:55;;;;;;;;;;;;;;;;;;7369036;19;1374;-60
2022/11/14 05:43:42;;;;;;;;;;;;;;;;;;7364783;19;731;-60
2022/11/14 05:46:29;;;;;;;;;;;;;;;;;;7366794;19;1922;-60
2022/11/14 05:49:15;;;;;;;;;;;;;;;;;;7366300;19;1837;-60
2022/11/14 05:52:02;;;;;;;;;;;;;;;;;;7371438;19;1393;-60
2022/11/14 05:54:49;;;;;;;;;;;;;;;;;;7372110;19;726;-60
2022/11/14 05:57:36;;;;;;;;;;;;;;;;;;7370391;19;874;-60
2022/11/14 06:00:23;;;;;;;;;;;;;;;;;;7371688;19;862;-60
2022/11/14 06:03:10;;;;;;;;;;;;;;;;;;7371292;19;738;-60
2022/11/14 06:05:56;;;;;;;;;;;;;;;;;;7371266;19;878;-59
2022/11/14 06:08:43;;;;;;;;;;;;;;;;;;7371255;19;1845;-60
2022/11/14 06:11:30;;;;;;;;;;;;;;;;;;7370667;19;1789;-60
2022/11/14 06:14:17;;;;;;;;;;;;;;;;;;7371313;19;793;-60
2022/11/14 06:17:03;;;;;;;;;;;;;;;;;;7372954;19;2033;-60
2022/11/14 06:19:50;;;;;;;;;;;;;;;;;;7370845;19;918;-59
2022/11/14 06:22:37;;;;;;;;;;;;;;;;;;7368862;19;1314;-62
2022/11/14 06:25:24;;;;;;;;;;;;;;;;;;7371114;19;912;-59
2022/11/14 06:28:10;;;;;;;;;;;;;;;;;;7369607;19;755;-57
2022/11/14 06:30:57;;;;;;;;;;;;;;;;;;7367890;19;1834;-61
2022/11/14 06:33:44;;;;;;;;;;;;;;;;;;7371023;19;761;-60
2022/11/14 06:36:31;;;;;;;;;;;;;;;;;;7370505;19;706;-60
2022/11/14 06:39:18;;;;;;;;;;;;;;;;;;7370860;19;1574;-60
2022/11/14 06:42:04;;;;;;;;;;;;;;;;;;7369615;19;1322;-59
2022/11/14 06:44:51;;;;;;;;;;;;;;;;;;7370428;19;711;-61
2022/11/14 06:47:38;;;;;;;;;;;;;;;;;;7369886;19;810;-60
2022/11/14 06:50:25;;;;;;;;;;;;;;;;;;7369376;19;1825;-60
2022/11/14 06:53:12;;;;;;;;;;;;;;;;;;7370374;19;786;-60
2022/11/14 06:55:58;;;;;;;;;;;;;;;;;;7370126;19;763;-61
2022/11/14 06:58:45;;;;;;;;;;;;;;;;;;7369107;19;862;-59
2022/11/14 07:01:32;;;;;;;;;;;;;;;;;;7366790;19;1377;-56
2022/11/14 07:04:19;;;;;;;;;;;;;;;;;;7370105;19;824;-58
2022/11/14 07:07:06;;;;;;;;;;;;;;;;;;7372455;19;1817;-61
2022/11/14 07:09:53;;;;;;;;;;;;;;;;;;7369994;19;1840;-61
2022/11/14 07:12:39;;;;;;;;;;;;;;;;;;7368915;19;1283;-59
2022/11/14 07:15:26;;;;;;;;;;;;;;;;;;7372502;19;736;-61
2022/11/14 07:18:13;;;;;;;;;;;;;;;;;;7371675;19;725;-61
2022/11/14 07:21:00;;;;;;;;;;;;;;;;;;7370755;19;1284;-59
2022/11/14 07:23:47;;;;;;;;;;;;;;;;;;7371576;19;865;-60
2022/11/14 07:26:33;;;;;;;;;;;;;;;;;;7370429;19;773;-60
2022/11/14 07:29:20;;;;;;;;;;;;;;;;;;7371766;19;1845;-61
2022/11/14 07:32:07;;;;;;;;;;;;;;;;;;7368906;19;1349;-61
2022/11/14 07:34:54;;;;;;;;;;;;;;;;;;7369379;19;728;-61
2022/11/14 07:37:41;;;;;;;;;;;;;;;;;;7371171;19;1849;-60
2022/11/14 07:40:27;;;;;;;;;;;;;;;;;;7372725;19;1840;-59
2022/11/14 07:43:14;;;;;;;;;;;;;;;;;;7369655;19;763;-60
2022/11/14 07:46:01;;;;;;;;;;;;;;;;;;7369306;19;760;-60
2022/11/14 07:48:47;;;;;;;;;;;;;;;;;;7368363;19;695;-61
2022/11/14 07:51:34;;;;;;;;;;;;;;;;;;7366462;19;1843;-61
2022/11/14 07:54:21;;;;;;;;;;;;;;;;;;7371631;19;2026;-59
2022/11/14 07:57:08;;;;;;;;;;;;;;;;;;7368016;19;802;-60
2022/11/14 07:59:55;;;;;;;;;;;;;;;;;;7367480;19;711;-61
2022/11/14 08:02:42;;;;;;;;;;;;;;;;;;7365656;19;1338;-62
2022/11/14 08:05:29;;;;;;;;;;;;;;;;;;7369961;19;2019;-60
2022/11/14 08:08:15;;;;;;;;;;;;;;;;;;7370233;19;1886;-61
2022/11/14 08:11:02;;;;;;;;;;;;;;;;;;7365256;19;1854;-60
2022/11/14 08:13:49;;;;;;;;;;;;;;;;;;7372035;19;2129;-59
2022/11/14 08:16:36;;;;;;;;;;;;;;;;;;7372606;19;742;-60
2022/11/14 08:19:23;;;;;;;;;;;;;;;;;;7369629;19;958;-54
2022/11/14 08:22:10;;;;;;;;;;;;;;;;;;7370573;19;1318;-60
2022/11/14 08:24:57;;;;;;;;;;;;;;;;;;7371682;19;2013;-59
2022/11/14 08:27:43;;;;;;;;;;;;;;;;;;7367277;19;771;-59
2022/11/14 08:30:30;;;;;;;;;;;;;;;;;;7366752;19;1822;-59
2022/11/14 08:33:17;;;;;;;;;;;;;;;;;;7367919;19;731;-61
2022/11/14 08:36:04;;;;;;;;;;;;;;;;;;7370309;19;1831;-60
2022/11/14 08:38:51;;;;;;;;;;;;;;;;;;7367013;19;882;-59
2022/11/14 08:41:38;;;;;;;;;;;;;;;;;;7366638;19;1808;-60
2022/11/14 08:44:24;;;;;;;;;;;;;;;;;;7368070;19;697;-59
2022/11/14 08:47:11;;;;;;;;;;;;;;;;;;7368358;19;705;-60
2022/11/14 08:49:58;;;;;;;;;;;;;;;;;;7367029;19;1834;-58
2022/11/14 08:52:45;;;;;;;;;;;;;;;;;;7366504;19;2066;-58
2022/11/14 08:55:31;;;;;;;;;;;;;;;;;;7367888;19;716;-57
2022/11/14 08:58:18;;;;;;;;;;;;;;;;;;7366552;19;722;-58
2022/11/14 09:01:05;;;;;;;;;;;;;;;;;;7366838;19;1365;-60
2022/11/14 09:03:52;;;;;;;;;;;;;;;;;;7369621;19;1854;-61
2022/11/14 09:06:39;;;;;;;;;;;;;;;;;;7367068;19;858;-57
2022/11/14 09:09:26;;;;;;;;;;;;;;;;;;7366023;19;772;-58
2022/11/14 09:12:13;;;;;;;;;;;;;;;;;;7364755;19;1367;-59
2022/11/14 09:14:59;;;;;;;;;;;;;;;;;;7367441;19;759;-57
2022/11/14 09:17:47;;;;;;;;;;;;;;;;;;7365399;19;752;-59
2022/11/14 09:20:33;;;;;;;;;;;;;;;;;;7366453;19;785;-64
2022/11/14 09:23:20;;;;;;;;;;;;;;;;;;7364971;19;730;-56
2022/11/14 09:26:06;;;;;;;;;;;;;;;;;;7366783;19;781;-59
2022/11/14 09:28:53;;;;;;;;;;;;;;;;;;7366149;19;835;-60
2022/11/14 09:31:40;;;;;;;;;;;;;;;;;;7363475;19;1862;-59
2022/11/14 09:34:27;;;;;;;;;;;;;;;;;;7369130;19;1821;-57
2022/11/14 09:37:14;;;;;;;;;;;;;;;;;;7366010;19;708;-60
2022/11/14 09:40:02;;;;;;;;;;;;;;;;;;7365929;19;684;-60
2022/11/14 09:42:48;;;;;;;;;;;;;;;;;;7363257;19;1393;-59
2022/11/14 09:45:35;;;;;;;;;;;;;;;;;;7365828;19;736;-60
2022/11/14 09:48:24;;;;;;;;;;;;;;;;;;7364883;19;707;-58
2022/11/14 09:51:11;;;;;;;;;;;;;;;;;;7363651;19;1876;-61
2022/11/14 09:53:58;;;;;;;;;;;;;;;;;;7364748;19;718;-60
2022/11/14 09:56:45;;;;;;;;;;;;;;;;;;7365510;19;786;-61
2022/11/14 09:59:32;;;;;;;;;;;;;;;;;;7364676;19;736;-61
2022/11/14 10:02:18;;;;;;;;;;;;;;;;;;7365630;19;1855;-58
2022/11/14 10:05:05;;;;;;;;;;;;;;;;;;7367516;19;1143;-61
2022/11/14 10:07:53;;;;;;;;;;;;;;;;;;7364183;19;822;-60
2022/11/14 10:10:39;;;;;;;;;;;;;;;;;;7363983;19;1842;-56
2022/11/14 10:13:26;;;;;;;;;;;;;;;;;;7364708;19;758;-60
2022/11/14 10:16:13;;;;;;;;;;;;;;;;;;7364793;19;701;-61
2022/11/14 10:18:59;;;;;;;;;;;;;;;;;;7366631;19;1701;-58
2022/11/14 10:21:46;;;;;;;;;;;;;;;;;;7366683;19;1279;-59
2022/11/14 10:24:33;;;;;;;;;;;;;;;;;;7363977;19;834;-59
2022/11/14 10:27:20;;;;;;;;;;;;;;;;;;7364276;19;820;-53
2022/11/14 10:30:06;;;;;;;;;;;;;;;;;;7366240;19;1845;-59
2022/11/14 10:32:53;;;;;;;;;;;;;;;;;;7365362;19;1800;-60
2022/11/14 10:35:40;;;;;;;;;;;;;;;;;;7366352;19;814;-60
2022/11/14 10:38:27;;;;;;;;;;;;;;;;;;7369104;19;708;-59
2022/11/14 10:41:14;;;;;;;;;;;;;;;;;;7369738;19;1357;-58
2022/11/14 10:44:01;;;;;;;;;;;;;;;;;;7371334;19;874;-60
2022/11/14 10:46:48;;;;;;;;;;;;;;;;;;7371327;19;785;-56
2022/11/14 10:49:35;;;;;;;;;;;;;;;;;;7370493;19;692;-59
2022/11/14 10:52:21;;;;;;;;;;;;;;;;;;7368146;19;1854;-59
2022/11/14 10:55:08;;;;;;;;;;;;;;;;;;7370766;19;790;-62
2022/11/14 10:57:56;;;;;;;;;;;;;;;;;;7369846;19;702;-58
2022/11/14 11:00:43;;;;;;;;;;;;;;;;;;7373427;19;1803;-61
2022/11/14 11:03:30;;;;;;;;;;;;;;;;;;7369607;19;840;-59
2022/11/14 11:06:16;;;;;;;;;;;;;;;;;;7369681;19;831;-54
2022/11/14 11:12:04;;;;;;;;;;;;;;;;;;7367497;19;1855;-57
2022/11/14 11:14:51;;;;;;;;;;;;;;;;;;7373759;19;775;-61
2022/11/14 11:17:37;;;;;;;;;;;;;;;;;;7373687;19;790;-62
2022/11/14 11:20:25;;;;;;;;;;;;;;;;;;7374258;19;865;-60
2022/11/14 11:23:12;;;;;;;;;;;;;;;;;;7374022;19;785;-60
2022/11/14 11:25:58;;;;;;;;;;;;;;;;;;7374144;19;853;-62
2022/11/14 11:28:45;;;;;;;;;;;;;;;;;;7371566;19;1662;-61
2022/11/14 11:31:32;;;;;;;;;;;;;;;;;;7373118;19;1838;-60
2022/11/14 11:34:19;;;;;;;;;;;;;;;;;;7371412;19;814;-60
2022/11/14 11:37:06;;;;;;;;;;;;;;;;;;7369891;19;782;-61
2022/11/14 11:39:52;;;;;;;;;;;;;;;;;;7369523;19;699;-60
2022/11/14 11:42:39;;;;;;;;;;;;;;;;;;7367829;19;1377;-60
2022/11/14 11:45:26;;;;;;;;;;;;;;;;;;7369576;19;836;-60
2022/11/14 11:48:13;;;;;;;;;;;;;;;;;;7366387;19;703;-59
2022/11/14 11:51:00;;;;;;;;;;;;;;;;;;7368215;19;1843;-60
2022/11/14 11:53:46;;;;;;;;;;;;;;;;;;7369193;19;795;-59
2022/11/14 11:56:33;;;;;;;;;;;;;;;;;;7369493;19;1771;-58
2022/11/14 11:59:20;;;;;;;;;;;;;;;;;;7368044;19;731;-61
2022/11/14 12:02:07;;;;;;;;;;;;;;;;;;7367119;19;1381;-60
2022/11/14 12:04:57;;;;;;;;;;;;;;;;;;7365622;19;1042;-60
2022/11/14 12:07:43;;;;;;;;;;;;;;;;;;7367660;19;799;-60
2022/11/14 12:10:30;;;;;;;;;;;;;;;;;;7366863;19;1945;-59
2022/11/14 12:13:17;;;;;;;;;;;;;;;;;;7369428;19;1825;-60
2022/11/14 12:16:04;;;;;;;;;;;;;;;;;;7367807;19;750;-61
2022/11/14 12:18:51;;;;;;;;;;;;;;;;;;7367445;19;759;-55
2022/11/14 12:21:37;;;;;;;;;;;;;;;;;;7366894;19;1459;-60
2022/11/14 12:24:24;;;;;;;;;;;;;;;;;;7367999;19;871;-60
2022/11/14 12:27:11;;;;;;;;;;;;;;;;;;7369573;19;1659;-59
2022/11/14 12:29:58;;;;;;;;;;;;;;;;;;7367669;19;934;-60
2022/11/14 12:32:45;;;;;;;;;;;;;;;;;;7365175;19;1864;-57
2022/11/14 12:35:32;;;;;;;;;;;;;;;;;;7367217;19;775;-61
2022/11/14 12:38:19;;;;;;;;;;;;;;;;;;7366980;19;741;-60
2022/11/14 12:41:07;;;;;;;;;;;;;;;;;;7368785;19;1839;-59
2022/11/14 12:43:54;;;;;;;;;;;;;;;;;;7367083;19;844;-59
2022/11/14 12:46:41;;;;;;;;;;;;;;;;;;7369887;19;901;-61
2022/11/14 12:49:27;;;;;;;;;;;;;;;;;;7367045;19;892;-61
2022/11/14 12:52:14;;;;;;;;;;;;;;;;;;7364470;19;1841;-60
2022/11/14 12:55:01;;;;;;;;;;;;;;;;;;7369000;19;1832;-58
2022/11/14 12:57:51;;;;;;;;;;;;;;;;;;7365279;19;824;-60
2022/11/14 13:00:38;;;;;;;;;;;;;;;;;;7365630;19;754;-60
2022/11/14 13:03:25;;;;;;;;;;;;;;;;;;7366290;19;1044;-61
2022/11/14 13:06:11;;;;;;;;;;;;;;;;;;7366886;19;878;-59
2022/11/14 13:08:59;;;;;;;;;;;;;;;;;;7366443;19;851;-60
2022/11/14 13:23:42;;;;;;;;;;;;;;;;;;7371455;19;925;-61
2022/11/14 13:26:29;;;;;;;;;;;;;;;;;;7366336;19;768;-57
2022/11/14 13:29:16;;;;;;;;;;;;;;;;;;7366047;19;870;-61
2022/11/14 13:32:03;;;;;;;;;;;;;;;;;;7364775;19;1837;-60
2022/11/14 13:34:50;;;;;;;;;;;;;;;;;;7366225;19;748;-58
2022/11/14 13:37:36;;;;;;;;;;;;;;;;;;7366152;19;703;-58
2022/11/14 13:40:23;;;;;;;;;;;;;;;;;;7366429;19;766;-59
2022/11/14 13:43:11;;;;;;;;;;;;;;;;;;7370690;19;1795;-60
2022/11/14 13:45:58;;;;;;;;;;;;;;;;;;7369477;19;1512;-59
2022/11/14 13:48:45;;;;;;;;;;;;;;;;;;7365915;19;765;-60
2022/11/14 13:51:32;;;;;;;;;;;;;;;;;;7364193;19;1849;-59
2022/11/14 13:54:18;;;;;;;;;;;;;;;;;;7370006;19;1894;-60
2022/11/14 13:57:05;;;;;;;;;;;;;;;;;;7369636;19;1070;-58
2022/11/14 13:59:52;;;;;;;;;;;;;;;;;;7369377;19;1454;-58
2022/11/14 14:02:39;;;;;;;;;;;;;;;;;;7366899;19;1612;-58
2022/11/14 14:05:25;;;;;;;;;;;;;;;;;;7364626;19;837;-60
2022/11/14 14:08:12;;;;;;;;;;;;;;;;;;7364757;19;838;-60
2022/11/14 14:10:59;;;;;;;;;;;;;;;;;;7368984;19;1849;-59
2022/11/14 14:13:46;;;;;;;;;;;;;;;;;;7371647;19;858;-59
2022/11/14 14:16:33;;;;;;;;;;;;;;;;;;7371304;19;915;-60
2022/11/14 14:19:20;;;;;;;;;;;;;;;;;;7373624;19;1691;-61
2022/11/14 14:22:07;;;;;;;;;;;;;;;;;;7374027;19;1559;-61
2022/11/14 14:24:53;;;;;;;;;;;;;;;;;;7370765;19;916;-57
2022/11/14 14:27:40;;;;;;;;;;;;;;;;;;7370273;19;652;-62
2022/11/14 14:30:27;;;;;;;;;;;;;;;;;;7371851;19;736;-62
2022/11/14 14:33:14;;;;;;;;;;;;;;;;;;7370908;19;1853;-59
2022/11/14 14:36:00;;;;;;;;;;;;;;;;;;7374497;19;722;-60
2022/11/14 14:38:47;;;;;;;;;;;;;;;;;;7377589;19;1700;-60
2022/11/14 14:41:34;;;;;;;;;;;;;;;;;;7375807;19;1453;-59
2022/11/14 14:44:21;;;;;;;;;;;;;;;;;;7376499;19;1763;-61
2022/11/14 14:47:08;;;;;;;;;;;;;;;;;;7374897;19;1141;-60
2022/11/14 14:49:55;;;;;;;;;;;;;;;;;;7369853;19;825;-60
2022/11/14 14:52:41;;;;;;;;;;;;;;;;;;7369282;19;1851;-60
2022/11/14 14:55:28;;;;;;;;;;;;;;;;;;7372028;19;722;-60
2022/11/14 14:58:16;;;;;;;;;;;;;;;;;;7370795;19;850;-60
2022/11/14 15:01:02;;;;;;;;;;;;;;;;;;7370396;19;1386;-56
2022/11/14 15:03:49;;;;;;;;;;;;;;;;;;7370226;19;666;-59
2022/11/14 15:06:36;;;;;;;;;;;;;;;;;;7370908;19;837;-60
2022/11/14 15:09:22;;;;;;;;;;;;;;;;;;7369681;19;768;-59
2022/11/14 15:12:09;;;;;;;;;;;;;;;;;;7368981;19;1842;-60
2022/11/14 15:14:56;;;;;;;;;;;;;;;;;;7370258;19;726;-60
2022/11/14 15:17:43;;;;;;;;;;;;;;;;;;7369925;19;693;-60
2022/11/14 15:20:30;;;;;;;;;;;;;;;;;;7369799;19;787;-57
2022/11/14 15:23:16;;;;;;;;;;;;;;;;;;7370995;19;1352;-59
2022/11/14 15:26:03;;;;;;;;;;;;;;;;;;7374878;19;1461;-59
2022/11/14 15:28:50;;;;;;;;;;;;;;;;;;7373941;19;1729;-59
2022/11/14 15:31:37;;;;;;;;;;;;;;;;;;7369667;19;1846;-59
2022/11/14 15:34:23;;;;;;;;;;;;;;;;;;7374855;19;728;-60
2022/11/14 15:37:12;;;;;;;;;;;;;;;;;;7369923;19;778;-61
2022/11/14 15:39:58;;;;;;;;;;;;;;;;;;7370969;19;610;-59
2022/11/14 15:42:46;;;;;;;;;;;;;;;;;;7368475;19;1319;-61
2022/11/14 15:45:32;;;;;;;;;;;;;;;;;;7370393;19;802;-58
2022/11/14 15:48:19;;;;;;;;;;;;;;;;;;7370318;19;844;-61
2022/11/14 15:51:06;;;;;;;;;;;;;;;;;;7373068;19;1490;-60
2022/11/14 15:53:53;;;;;;;;;;;;;;;;;;7370182;19;927;-60
2022/11/14 15:56:40;;;;;;;;;;;;;;;;;;7369489;19;703;-60
2022/11/14 15:59:27;;;;;;;;;;;;;;;;;;7370219;19;801;-59
2022/11/14 16:02:13;;;;;;;;;;;;;;;;;;7367030;19;1325;-60
2022/11/14 16:05:00;;;;;;;;;;;;;;;;;;7369712;19;762;-60
2022/11/14 16:07:47;;;;;;;;;;;;;;;;;;7369717;19;797;-61
2022/11/14 16:10:34;;;;;;;;;;;;;;;;;;7368986;19;751;-61
2022/11/14 16:13:21;;;;;;;;;;;;;;;;;;7367327;19;1841;-60
2022/11/14 16:16:07;;;;;;;;;;;;;;;;;;7369261;19;819;-62
2022/11/14 16:18:54;;;;;;;;;;;;;;;;;;7372718;19;1716;-59
2022/11/14 16:21:41;;;;;;;;;;;;;;;;;;7368803;19;1314;-60
2022/11/14 16:24:28;;;;;;;;;;;;;;;;;;7370981;19;676;-59
2022/11/14 16:27:15;;;;;;;;;;;;;;;;;;7373228;19;1607;-62
2022/11/14 16:30:01;;;;;;;;;;;;;;;;;;7372544;19;723;-61
2022/11/14 16:32:48;;;;;;;;;;;;;;;;;;7365393;19;1842;-61
2022/11/14 16:35:35;;;;;;;;;;;;;;;;;;7368448;19;752;-58
2022/11/14 16:38:22;;;;;;;;;;;;;;;;;;7372195;19;1847;-59
2022/11/14 16:41:09;;;;;;;;;;;;;;;;;;7372140;19;1607;-58
2022/11/14 16:43:55;;;;;;;;;;;;;;;;;;7368102;19;691;-60
2022/11/14 16:46:42;;;;;;;;;;;;;;;;;;7369141;19;844;-59
2022/11/14 16:49:29;;;;;;;;;;;;;;;;;;7367014;19;711;-61
2022/11/14 16:52:16;;;;;;;;;;;;;;;;;;7364306;19;1842;-59
2022/11/14 16:55:03;;;;;;;;;;;;;;;;;;7371163;19;1760;-60
2022/11/14 16:57:49;;;;;;;;;;;;;;;;;;7367111;19;704;-60
2022/11/14 17:00:37;;;;;;;;;;;;;;;;;;7366954;19;707;-60
2022/11/14 17:03:23;;;;;;;;;;;;;;;;;;7367103;19;676;-59
2022/11/14 17:06:11;;;;;;;;;;;;;;;;;;7367422;19;661;-61
2022/11/14 17:08:58;;;;;;;;;;;;;;;;;;7366789;19;712;-60
2022/11/14 17:11:45;;;;;;;;;;;;;;;;;;7365806;19;1842;-61
2022/11/14 17:14:32;;;;;;;;;;;;;;;;;;7366792;19;875;-58
2022/11/14 17:17:19;;;;;;;;;;;;;;;;;;7367194;19;611;-61
2022/11/14 17:20:06;;;;;;;;;;;;;;;;;;7366668;19;688;-61
2022/11/14 17:22:53;;;;;;;;;;;;;;;;;;7364027;19;1275;-59
2022/11/14 17:25:40;;;;;;;;;;;;;;;;;;7365819;19;833;-59
2022/11/14 17:28:27;;;;;;;;;;;;;;;;;;7365450;19;725;-60
2022/11/14 17:31:14;;;;;;;;;;;;;;;;;;7365677;19;1422;-61
2022/11/14 17:34:01;;;;;;;;;;;;;;;;;;7363128;19;1846;-59
2022/11/14 17:36:48;;;;;;;;;;;;;;;;;;7365753;19;724;-59
2022/11/14 17:39:36;;;;;;;;;;;;;;;;;;7365775;19;737;-58
2022/11/14 17:42:22;;;;;;;;;;;;;;;;;;7364579;19;1302;-61
2022/11/14 17:45:09;;;;;;;;;;;;;;;;;;7367973;19;661;-61
2022/11/14 17:47:56;;;;;;;;;;;;;;;;;;7371902;19;615;-60
2022/11/14 17:50:43;;;;;;;;;;;;;;;;;;7372148;19;708;-60
2022/11/14 17:53:29;;;;;;;;;;;;;;;;;;7370474;19;1861;-61
2022/11/14 17:56:16;;;;;;;;;;;;;;;;;;7371985;19;773;-61
2022/11/14 17:59:03;;;;;;;;;;;;;;;;;;7371053;19;720;-61
2022/11/14 18:01:51;;;;;;;;;;;;;;;;;;7371620;19;1291;-61
2022/11/14 18:04:37;;;;;;;;;;;;;;;;;;7371808;19;704;-60
2022/11/14 18:07:24;;;;;;;;;;;;;;;;;;7371465;19;797;-61
2022/11/14 18:10:11;;;;;;;;;;;;;;;;;;7372299;19;734;-61
2022/11/14 18:12:58;;;;;;;;;;;;;;;;;;7370325;19;1851;-60
2022/11/14 18:15:45;;;;;;;;;;;;;;;;;;7371768;19;724;-59
2022/11/14 18:18:31;;;;;;;;;;;;;;;;;;7371146;19;746;-58
2022/11/14 18:21:18;;;;;;;;;;;;;;;;;;7371233;19;1396;-61
2022/11/14 18:24:05;;;;;;;;;;;;;;;;;;7374336;19;1473;-61
2022/11/14 18:26:52;;;;;;;;;;;;;;;;;;7375343;19;759;-60
2022/11/14 18:29:39;;;;;;;;;;;;;;;;;;7370390;19;780;-57
2022/11/14 18:32:25;;;;;;;;;;;;;;;;;;7370425;19;1853;-60
2022/11/14 18:35:12;;;;;;;;;;;;;;;;;;7372720;19;1766;-60
2022/11/14 18:37:59;;;;;;;;;;;;;;;;;;7371281;19;726;-60
2022/11/14 18:40:46;;;;;;;;;;;;;;;;;;7371245;19;767;-60
2022/11/14 18:43:33;;;;;;;;;;;;;;;;;;7370918;19;798;-60
2022/11/14 18:46:20;;;;;;;;;;;;;;;;;;7370821;19;763;-59
2022/11/14 18:49:07;;;;;;;;;;;;;;;;;;7370534;19;703;-59
2022/11/14 18:51:54;;;;;;;;;;;;;;;;;;7369615;19;1370;-58
2022/11/14 18:54:41;;;;;;;;;;;;;;;;;;7370094;19;908;-58
2022/11/14 18:57:28;;;;;;;;;;;;;;;;;;7374414;19;1885;-58
2022/11/14 19:00:14;;;;;;;;;;;;;;;;;;7371059;19;615;-59
2022/11/14 19:03:01;;;;;;;;;;;;;;;;;;7371374;19;1353;-59
2022/11/14 19:05:48;;;;;;;;;;;;;;;;;;7373943;19;697;-59
2022/11/14 19:08:35;;;;;;;;;;;;;;;;;;7372494;19;563;-59
2022/11/14 19:14:21;;;;;;;;;;;;;;;;;;7370856;19;1814;-60
2022/11/14 19:17:08;;;;;;;;;;;;;;;;;;7371616;19;717;-60
2022/11/14 19:19:55;;;;;;;;;;;;;;;;;;7369757;19;750;-61
2022/11/14 19:22:43;;;;;;;;;;;;;;;;;;7369050;19;1887;-61
2022/11/14 19:25:30;;;;;;;;;;;;;;;;;;7370670;19;728;-62
2022/11/14 19:28:16;;;;;;;;;;;;;;;;;;7369270;19;724;-60
2022/11/14 19:31:03;;;;;;;;;;;;;;;;;;7369983;19;1373;-61
2022/11/14 19:33:50;;;;;;;;;;;;;;;;;;7367750;19;1843;-60
2022/11/14 19:36:37;;;;;;;;;;;;;;;;;;7370123;19;1816;-59
2022/11/14 19:39:23;;;;;;;;;;;;;;;;;;7369090;19;721;-60
2022/11/14 19:42:10;;;;;;;;;;;;;;;;;;7372111;19;1346;-62
2022/11/14 19:44:57;;;;;;;;;;;;;;;;;;7370140;19;694;-59
2022/11/14 19:47:44;;;;;;;;;;;;;;;;;;7369558;19;740;-62